Time;durP1;ratioP1;P1;durP2;ratioP2;P2;SDS_P1;SDS_P2;PMS_P1;PMS_P2;Temp;Humidity;BMP_temperature;BMP_pressure;BME280_temperature;BME280_humidity;BME280_pressure;Samples;Min_cycle;Max_cycle;Signal;HPM_P1;HPM_P2
2022/05/27 00:01:26;;;;;;;14.25;5.85;;;14.40;99.90;;;;;;5035354;28;20515;-77
2022/05/27 00:03:53;;;;;;;21.75;6.38;;;14.50;99.90;;;;;;5036037;28;20049;-77
2022/05/27 00:06:20;;;;;;;17.27;5.30;;;14.40;99.90;;;;;;5035630;28;20119;-77
2022/05/27 00:08:49;;;;;;;13.43;4.53;;;14.40;99.90;;;;;;5034907;28;20513;-77
2022/05/27 00:11:16;;;;;;;15.80;5.13;;;14.50;99.90;;;;;;5017880;28;20119;-77
2022/05/27 00:13:43;;;;;;;17.10;3.85;;;14.30;99.90;;;;;;5017773;28;20513;-75
2022/05/27 00:16:11;;;;;;;20.20;5.10;;;14.30;99.90;;;;;;5017919;28;20057;-76
2022/05/27 00:18:38;;;;;;;18.02;4.30;;;14.20;99.90;;;;;;5018103;28;20102;-77
2022/05/27 00:21:05;;;;;;;16.77;4.90;;;14.20;99.90;;;;;;5035571;28;20053;-79
2022/05/27 00:23:33;;;;;;;20.65;4.85;;;14.10;99.90;;;;;;5017324;28;20049;-78
2022/05/27 00:26:01;;;;;;;17.83;4.75;;;14.10;99.90;;;;;;5014561;28;20482;-78
2022/05/27 00:28:28;;;;;;;20.63;5.25;;;14.00;99.90;;;;;;4999899;28;20053;-77
2022/05/27 00:30:55;;;;;;;12.85;3.90;;;14.00;99.90;;;;;;5003961;28;20050;-77
2022/05/27 00:33:22;;;;;;;15.80;4.30;;;13.90;99.90;;;;;;5022907;28;20054;-77
2022/05/27 00:35:50;;;;;;;12.77;4.00;;;13.90;99.90;;;;;;4998269;28;20054;-78
2022/05/27 00:38:17;;;;;;;15.45;4.53;;;13.80;99.90;;;;;;5015134;28;20121;-78
2022/05/27 00:40:46;;;;;;;14.18;4.15;;;13.80;99.90;;;;;;5003498;28;20470;-77
2022/05/27 00:43:16;;;;;;;15.90;4.50;;;13.70;99.90;;;;;;5034161;28;20080;-77
2022/05/27 00:45:44;;;;;;;11.43;4.70;;;13.70;99.90;;;;;;5035186;28;20084;-79
2022/05/27 00:48:15;;;;;;;15.45;4.47;;;13.60;99.90;;;;;;5017339;28;20114;-80
2022/05/27 00:50:44;;;;;;;17.58;4.38;;;13.60;99.90;;;;;;5033002;28;20479;-79
2022/05/27 00:53:14;;;;;;;11.80;4.57;;;13.50;99.90;;;;;;5016668;28;20111;-79
2022/05/27 00:55:47;;;;;;;20.08;4.13;;;13.50;99.90;;;;;;5034164;28;20109;-79
2022/05/27 00:58:21;;;;;;;13.77;4.70;;;13.40;99.90;;;;;;5016295;28;20057;-76
2022/05/27 01:00:48;;;;;;;16.92;4.43;;;13.30;99.90;;;;;;5017211;28;20084;-78
2022/05/27 01:03:17;;;;;;;13.02;3.90;;;13.30;99.90;;;;;;5016347;28;20546;-80
2022/05/27 01:05:46;;;;;;;15.23;4.22;;;13.20;99.90;;;;;;5034116;28;20101;-78
2022/05/27 01:08:15;;;;;;;17.00;4.32;;;13.20;99.90;;;;;;5034033;28;20107;-79
2022/05/27 01:10:54;;;;;;;17.80;4.35;;;13.20;99.90;;;;;;5033076;28;20563;-79
2022/05/27 01:13:35;;;;;;;13.07;4.25;;;13.10;99.90;;;;;;5016809;28;20042;-78
2022/05/27 01:16:09;;;;;;;;;;;13.10;99.90;;;;;;5017204;28;20053;-79
2022/05/27 01:21:45;;;;;;;12.25;3.55;;;13.10;99.90;;;;;;5016453;28;20053;-80
2022/05/27 01:24:28;;;;;;;17.23;4.78;;;13.00;99.90;;;;;;5033749;28;20046;-79
2022/05/27 01:27:18;;;;;;;13.30;4.43;;;13.00;99.90;;;;;;5016188;28;20049;-79
2022/05/27 01:30:20;;;;;;;16.80;4.55;;;13.00;99.90;;;;;;5016258;28;20061;-80
2022/05/27 01:32:55;;;;;;;17.40;3.92;;;12.90;99.90;;;;;;5015452;28;20085;-79
2022/05/27 01:35:31;;;;;;;16.20;3.97;;;12.90;99.90;;;;;;5016158;28;20061;-80
2022/05/27 01:38:09;;;;;;;16.85;3.95;;;12.80;99.90;;;;;;5015724;28;20486;-78
2022/05/27 01:40:45;;;;;;;12.85;3.50;;;12.80;99.90;;;;;;5033008;28;20551;-79
2022/05/27 01:43:17;;;;;;;18.35;3.78;;;12.70;99.90;;;;;;5034182;28;20378;-80
2022/05/27 01:45:52;;;;;;;12.25;4.03;;;12.70;99.90;;;;;;5016184;28;20162;-80
2022/05/27 01:48:27;;;;;;;16.08;3.35;;;12.60;99.90;;;;;;5033587;28;20077;-82
2022/05/27 01:51:02;;;;;;;13.27;3.25;;;12.50;99.90;;;;;;5016341;28;20054;-81
2022/05/27 01:53:35;;;;;;;9.05;3.65;;;12.50;99.90;;;;;;5032592;28;20052;-82
2022/05/27 01:56:09;;;;;;;25.55;4.30;;;12.40;99.90;;;;;;5033822;28;20054;-80
2022/05/27 01:58:39;;;;;;;11.90;4.05;;;12.40;99.90;;;;;;5016216;28;20053;-80
2022/05/27 02:01:14;;;;;;;16.48;3.47;;;12.30;99.90;;;;;;5015208;28;20088;-80
2022/05/27 02:03:45;;;;;;;17.92;5.07;;;12.20;99.90;;;;;;5015806;28;20099;-79
2022/05/27 02:06:16;;;;;;;14.35;3.92;;;12.20;99.90;;;;;;5032995;28;20108;-79
2022/05/27 02:08:49;;;;;;;12.48;4.38;;;12.10;99.90;;;;;;5032468;28;20045;-80
2022/05/27 02:11:19;;;;;;;16.20;3.78;;;12.10;99.90;;;;;;5033541;28;20049;-80
2022/05/27 02:13:51;;;;;;;11.23;3.83;;;12.00;99.90;;;;;;5033199;28;20045;-81
2022/05/27 02:16:24;;;;;;;12.93;3.95;;;11.90;99.90;;;;;;5015458;28;20053;-80
2022/05/27 02:18:55;;;;;;;11.43;4.45;;;11.90;99.90;;;;;;5033323;28;20049;-80
2022/05/27 02:21:29;;;;;;;17.08;3.97;;;11.90;99.90;;;;;;5015262;28;20482;-81
2022/05/27 02:24:01;;;;;;;14.68;4.28;;;11.80;99.90;;;;;;5015099;28;20085;-81
2022/05/27 02:26:32;;;;;;;14.23;3.90;;;11.80;99.90;;;;;;5015875;28;20099;-81
2022/05/27 02:29:01;;;;;;;11.45;3.30;;;11.80;99.90;;;;;;5032121;28;20494;-82
2022/05/27 02:31:32;;;;;;;14.27;3.42;;;11.80;99.90;;;;;;5033293;28;20652;-81
2022/05/27 02:36:53;;;;;;;18.70;4.68;;;11.70;99.90;;;;;;5015418;28;20049;-81
2022/05/27 02:39:20;;;;;;;11.10;3.78;;;11.70;99.90;;;;;;5015198;28;20085;-81
2022/05/27 02:41:57;;;;;;;15.50;3.85;;;11.70;99.90;;;;;;5032495;28;20054;-77
2022/05/27 02:44:29;;;;;;;14.52;3.15;;;11.60;99.90;;;;;;5014933;28;20081;-78
2022/05/27 02:47:05;;;;;;;17.75;4.18;;;11.60;99.90;;;;;;5033233;28;20049;-77
2022/05/27 02:49:39;;;;;;;12.68;3.17;;;11.50;99.90;;;;;;5014297;28;20092;-78
2022/05/27 02:52:16;;;;;;;13.27;3.40;;;11.50;99.90;;;;;;5033310;28;20057;-78
2022/05/27 02:54:54;;;;;;;12.43;3.65;;;11.50;99.90;;;;;;5015034;28;20099;-77
2022/05/27 02:57:25;;;;;;;9.15;3.20;;;11.50;99.90;;;;;;5032675;28;20085;-78
2022/05/27 02:59:54;;;;;;;16.60;3.72;;;11.40;99.90;;;;;;5019626;28;20079;-78
2022/05/27 03:02:22;;;;;;;12.05;3.20;;;11.40;99.90;;;;;;5019417;28;20096;-79
2022/05/27 03:04:52;;;;;;;8.68;2.72;;;11.40;99.90;;;;;;5035987;28;20045;-78
2022/05/27 03:07:33;;;;;;;13.27;2.90;;;11.30;99.90;;;;;;5018832;28;20053;-76
2022/05/27 03:10:17;;;;;;;15.98;3.92;;;11.30;99.90;;;;;;5017637;28;20049;-76
2022/05/27 03:12:52;;;;;;;10.82;4.03;;;11.20;99.90;;;;;;5018303;28;20080;-76
2022/05/27 03:15:32;;;;;;;11.73;3.60;;;11.20;99.90;;;;;;5018681;28;20046;-76
2022/05/27 03:18:09;;;;;;;16.35;3.92;;;11.10;99.90;;;;;;5017567;28;20072;-77
2022/05/27 03:20:47;;;;;;;9.00;3.08;;;11.10;99.90;;;;;;5036439;28;20111;-77
2022/05/27 03:23:43;;;;;;;9.23;3.17;;;11.00;99.90;;;;;;5035579;28;20077;-77
2022/05/27 03:26:21;;;;;;;13.35;4.25;;;11.00;99.90;;;;;;5018309;28;20049;-77
2022/05/27 03:28:57;;;;;;;12.68;3.45;;;11.00;99.90;;;;;;5041261;28;20057;-77
2022/05/27 03:31:28;;;;;;;16.50;4.45;;;10.90;99.90;;;;;;5022988;28;20089;-76
2022/05/27 03:34:05;;;;;;;13.38;3.60;;;11.00;99.90;;;;;;5040314;28;20111;-76
2022/05/27 03:36:37;;;;;;;16.55;4.57;;;10.90;99.90;;;;;;5018424;28;20131;-76
2022/05/27 03:39:10;;;;;;;13.13;3.83;;;10.90;99.90;;;;;;5017230;28;20084;-77
2022/05/27 03:41:43;;;;;;;18.30;3.58;;;10.90;99.90;;;;;;5018363;28;20382;-76
2022/05/27 03:44:14;;;;;;;16.55;3.28;;;10.90;99.90;;;;;;5018039;28;20045;-77
2022/05/27 03:46:41;;;;;;;13.73;2.97;;;10.90;99.90;;;;;;5017804;28;20103;-76
2022/05/27 03:49:09;;;;;;;11.07;3.60;;;11.00;99.90;;;;;;5018011;28;20080;-75
2022/05/27 03:51:44;;;;;;;17.95;3.97;;;11.10;99.90;;;;;;5017963;28;20452;-76
2022/05/27 03:54:12;;;;;;;9.57;3.45;;;11.00;99.90;;;;;;5034492;28;20441;-76
2022/05/27 03:56:41;;;;;;;14.07;3.40;;;11.10;99.90;;;;;;5035711;28;20123;-77
2022/05/27 03:59:09;;;;;;;12.60;3.05;;;11.10;99.90;;;;;;5035274;28;20107;-77
2022/05/27 04:01:37;;;;;;;9.75;3.40;;;11.10;99.90;;;;;;5035285;28;20485;-77
2022/05/27 04:04:06;;;;;;;13.35;3.45;;;11.20;99.90;;;;;;5035894;28;20072;-76
2022/05/27 04:06:35;;;;;;;11.02;3.17;;;11.20;99.90;;;;;;5017160;28;20119;-76
2022/05/27 04:09:02;;;;;;;6.95;2.63;;;11.30;99.90;;;;;;5034422;28;20130;-77
2022/05/27 04:11:30;;;;;;;9.60;2.90;;;11.30;99.90;;;;;;5017690;28;20140;-76
2022/05/27 04:13:57;;;;;;;12.95;3.15;;;11.40;99.90;;;;;;5037005;28;20107;-76
2022/05/27 04:16:25;;;;;;;7.55;3.13;;;11.50;99.90;;;;;;5036278;28;20119;-76
2022/05/27 04:18:52;;;;;;;5.88;2.90;;;11.50;99.90;;;;;;5034949;28;20084;-77
2022/05/27 04:21:19;;;;;;;12.73;3.92;;;11.50;99.90;;;;;;5034147;28;20498;-77
2022/05/27 04:23:47;;;;;;;13.68;3.72;;;11.90;99.90;;;;;;5034939;28;20049;-77
2022/05/27 04:26:14;;;;;;;12.23;3.28;;;11.70;99.90;;;;;;5035220;28;20049;-77
2022/05/27 04:28:41;;;;;;;11.07;3.65;;;11.70;99.90;;;;;;5034121;28;20104;-78
2022/05/27 04:31:08;;;;;;;12.38;2.80;;;11.70;99.90;;;;;;5035102;28;20111;-76
2022/05/27 04:33:35;;;;;;;10.50;3.55;;;11.70;99.90;;;;;;5017165;28;20099;-78
2022/05/27 04:36:04;;;;;;;15.23;3.83;;;11.70;99.90;;;;;;5034059;28;20050;-76
2022/05/27 04:38:31;;;;;;;14.45;3.13;;;11.70;99.90;;;;;;5017010;28;20053;-77
2022/05/27 04:40:59;;;;;;;14.70;3.50;;;11.70;99.90;;;;;;5033792;28;20053;-76
2022/05/27 04:43:26;;;;;;;14.98;3.40;;;11.80;99.90;;;;;;5015177;28;20107;-77
2022/05/27 04:45:53;;;;;;;15.82;3.40;;;11.80;99.90;;;;;;5016623;28;20108;-77
2022/05/27 04:48:20;;;;;;;13.75;3.30;;;11.80;99.90;;;;;;5016796;28;20091;-77
2022/05/27 04:50:48;;;;;;;17.58;4.00;;;11.80;99.90;;;;;;5016425;28;20136;-76
2022/05/27 04:53:15;;;;;;;15.07;3.63;;;12.00;99.90;;;;;;5016685;28;20570;-79
2022/05/27 04:55:42;;;;;;;15.32;2.97;;;12.00;99.90;;;;;;5016448;28;20085;-78
2022/05/27 04:58:12;;;;;;;12.15;3.40;;;12.10;99.90;;;;;;5034781;28;20049;-76
2022/05/27 05:00:41;;;;;;;12.35;3.72;;;12.20;99.90;;;;;;5034319;28;20276;-76
2022/05/27 05:03:09;;;;;;;10.30;3.15;;;12.20;99.90;;;;;;5021779;28;20041;-84
2022/05/27 05:05:36;;;;;;;16.25;4.30;;;12.20;99.90;;;;;;5011752;28;20076;-76
2022/05/27 05:08:08;;;;;;;10.93;3.47;;;12.30;99.90;;;;;;5014087;28;20065;-77
2022/05/27 05:10:36;;;;;;;14.57;3.40;;;12.40;99.90;;;;;;5028804;28;20508;-77
2022/05/27 05:13:03;;;;;;;13.15;3.75;;;12.50;99.90;;;;;;5011600;28;20123;-77
2022/05/27 05:15:31;;;;;;;11.55;2.75;;;12.60;99.90;;;;;;5024792;28;20054;-77
2022/05/27 05:17:58;;;;;;;10.25;2.70;;;12.70;99.90;;;;;;5025682;28;20584;-80
2022/05/27 05:20:27;;;;;;;11.80;2.85;;;12.90;99.90;;;;;;5024938;28;20070;-78
2022/05/27 05:22:54;;;;;;;9.57;3.05;;;13.00;99.90;;;;;;5012130;28;20118;-78
2022/05/27 05:25:23;;;;;;;14.27;2.95;;;13.10;99.90;;;;;;5006635;28;20077;-76
2022/05/27 05:27:50;;;;;;;13.13;2.90;;;13.10;99.90;;;;;;5007409;28;20123;-76
2022/05/27 05:30:20;;;;;;;19.20;4.00;;;13.20;99.90;;;;;;5028439;28;20049;-78
2022/05/27 05:32:48;;;;;;;10.95;3.08;;;13.30;99.90;;;;;;5009482;28;20096;-77
2022/05/27 05:35:16;;;;;;;10.77;2.60;;;13.40;99.90;;;;;;5007808;28;20042;-77
2022/05/27 05:37:43;;;;;;;7.90;2.90;;;13.60;99.90;;;;;;5023987;28;20080;-79
2022/05/27 05:40:12;;;;;;;12.77;3.67;;;13.70;99.90;;;;;;5006179;28;20077;-78
2022/05/27 05:42:40;;;;;;;13.88;2.85;;;13.80;99.90;;;;;;5025520;28;20312;-77
2022/05/27 05:45:09;;;;;;;10.50;2.78;;;13.80;99.90;;;;;;5005278;28;20049;-77
2022/05/27 05:47:36;;;;;;;12.32;3.17;;;13.90;99.90;;;;;;5009965;28;20138;-77
2022/05/27 05:50:06;;;;;;;15.20;3.67;;;13.90;99.90;;;;;;5027659;28;20081;-77
2022/05/27 05:52:32;;;;;;;11.98;2.97;;;14.00;99.90;;;;;;5023655;28;20080;-76
2022/05/27 05:54:59;;;;;;;11.50;2.88;;;14.10;99.90;;;;;;5010573;28;20081;-77
2022/05/27 05:57:26;;;;;;;11.13;3.42;;;14.10;99.90;;;;;;5006471;28;20524;-79
2022/05/27 05:59:53;;;;;;;10.45;2.88;;;14.10;99.90;;;;;;5025550;28;20169;-77
2022/05/27 06:02:20;;;;;;;15.60;2.67;;;14.30;99.90;;;;;;5012591;28;20057;-77
2022/05/27 06:04:47;;;;;;;14.45;3.00;;;14.50;99.90;;;;;;5008073;28;20109;-80
2022/05/27 06:07:15;;;;;;;10.00;2.63;;;14.70;99.90;;;;;;5009632;28;20131;-77
2022/05/27 06:09:42;;;;;;;17.20;3.10;;;14.90;99.90;;;;;;5027118;28;20070;-79
2022/05/27 06:12:10;;;;;;;14.18;3.47;;;14.90;99.90;;;;;;5025061;28;20379;-78
2022/05/27 06:14:37;;;;;;;12.60;3.30;;;15.00;99.90;;;;;;5024134;28;20053;-77
2022/05/27 06:17:05;;;;;;;9.63;3.10;;;14.90;99.90;;;;;;5008704;28;20099;-79
2022/05/27 06:19:32;;;;;;;14.38;3.83;;;15.00;99.90;;;;;;5026295;28;20100;-76
2022/05/27 06:21:58;;;;;;;19.15;3.65;;;15.50;99.90;;;;;;5008593;28;20107;-75
2022/05/27 06:24:27;;;;;;;14.60;3.55;;;15.10;99.90;;;;;;5010034;28;20147;-77
2022/05/27 06:26:54;;;;;;;12.52;2.78;;;15.20;99.90;;;;;;5023824;28;20151;-78
2022/05/27 06:34:49;;;;;;;11.65;3.47;;;15.40;99.90;;;;;;5029968;28;20102;-78
2022/05/27 06:37:19;;;;;;;10.07;3.10;;;15.80;99.90;;;;;;5031561;28;20093;-76
2022/05/27 06:39:48;;;;;;;19.33;3.70;;;16.20;99.90;;;;;;5030789;28;20085;-76
2022/05/27 06:42:16;;;;;;;14.45;3.75;;;16.30;99.90;;;;;;5010597;28;20089;-82
2022/05/27 06:44:43;;;;;;;10.50;2.80;;;16.10;99.90;;;;;;5017034;28;20081;-77
2022/05/27 06:47:11;;;;;;;13.07;2.95;;;16.10;99.90;;;;;;5005619;28;20076;-80
2022/05/27 06:49:39;;;;;;;12.57;3.05;;;16.10;99.90;;;;;;5012783;28;20063;-78
2022/05/27 06:52:07;;;;;;;13.48;2.92;;;16.20;99.90;;;;;;5013625;28;20135;-78
2022/05/27 06:54:34;;;;;;;8.95;2.70;;;16.50;99.90;;;;;;5031452;28;20116;-78
2022/05/27 06:57:05;;;;;;;8.88;2.83;;;16.80;99.90;;;;;;5004349;28;20442;-78
2022/05/27 06:59:34;;;;;;;14.13;3.17;;;17.30;99.50;;;;;;5019027;28;20108;-78
2022/05/27 07:02:01;;;;;;;13.55;2.80;;;18.00;99.60;;;;;;5000461;28;20147;-77
2022/05/27 07:04:28;;;;;;;9.38;2.58;;;18.10;98.00;;;;;;5007912;28;20046;-77
2022/05/27 07:06:57;;;;;;;11.00;3.10;;;18.30;96.60;;;;;;5017660;28;20056;-79
2022/05/27 07:09:25;;;;;;;11.73;2.88;;;18.20;95.50;;;;;;5015238;28;20058;-77
2022/05/27 07:11:56;;;;;;;11.55;2.83;;;18.00;94.00;;;;;;5016626;28;20053;-78
2022/05/27 07:14:24;;;;;;;;;;;17.80;91.20;;;;;;5016087;28;20050;-79
2022/05/27 07:16:51;;;;;;;10.15;2.78;;;18.10;86.30;;;;;;5018996;28;19968;-77
2022/05/27 07:19:19;;;;;;;11.05;3.10;;;18.00;90.80;;;;;;5034030;28;20080;-77
2022/05/27 07:21:47;;;;;;;9.02;2.85;;;17.90;90.50;;;;;;5016429;28;20502;-78
2022/05/27 07:24:16;;;;;;;10.45;2.92;;;17.30;90.30;;;;;;5021655;28;20049;-80
2022/05/27 07:26:44;;;;;;;7.68;2.88;;;17.10;92.00;;;;;;5017196;28;20089;-77
2022/05/27 07:29:12;;;;;;;9.55;3.17;;;17.20;92.60;;;;;;5015684;28;20071;-78
2022/05/27 07:31:43;;;;;;;10.80;3.15;;;17.50;93.10;;;;;;5000996;28;20054;-77
2022/05/27 07:34:09;;;;;;;;;;;17.30;92.60;;;;;;5019020;28;20107;-75
2022/05/27 07:36:36;;;;;;;8.82;2.75;;;17.50;96.20;;;;;;5000494;28;20415;-75
2022/05/27 07:39:04;;;;;;;10.15;3.03;;;17.90;94.60;;;;;;5016935;28;20085;-74
2022/05/27 07:41:31;;;;;;;7.82;2.20;;;18.50;93.70;;;;;;5009938;28;20053;-75
2022/05/27 07:44:01;;;;;;;10.07;2.67;;;19.20;92.70;;;;;;5007093;28;20060;-73
2022/05/27 07:46:30;;;;;;;7.40;2.10;;;19.30;88.80;;;;;;5009372;28;20042;-74
2022/05/27 07:48:59;;;;;;;10.32;2.65;;;19.00;91.30;;;;;;5011817;28;20107;-74
2022/05/27 07:51:26;;;;;;;8.32;2.35;;;19.40;90.80;;;;;;5014994;28;20157;-75
2022/05/27 07:53:53;;;;;;;12.43;2.85;;;19.50;89.50;;;;;;5033852;28;20046;-75
2022/05/27 07:56:20;;;;;;;11.10;2.85;;;19.90;90.10;;;;;;5014916;28;20046;-75
2022/05/27 07:58:47;;;;;;;14.23;3.30;;;19.90;87.50;;;;;;5002618;28;20077;-76
2022/05/27 08:01:15;;;;;;;12.45;3.47;;;20.10;87.70;;;;;;5002749;28;20516;-77
2022/05/27 08:03:42;;;;;;;9.82;2.78;;;20.50;88.10;;;;;;5016485;28;20053;-76
2022/05/27 08:06:11;;;;;;;9.02;3.13;;;20.60;87.90;;;;;;5013280;28;20045;-75
2022/05/27 08:08:39;;;;;;;12.60;3.57;;;20.80;86.80;;;;;;5029306;28;20053;-76
2022/05/27 08:11:07;;;;;;;11.90;3.15;;;20.30;87.20;;;;;;5011335;28;20062;-75
2022/05/27 08:13:34;;;;;;;9.68;2.58;;;19.50;87.90;;;;;;5013285;28;20060;-76
2022/05/27 08:16:01;;;;;;;10.02;3.40;;;18.90;88.20;;;;;;4999728;28;20081;-76
2022/05/27 08:18:28;;;;;;;7.95;2.97;;;18.30;89.50;;;;;;5014614;28;20045;-76
2022/05/27 08:20:54;;;;;;;9.60;3.17;;;17.80;89.90;;;;;;5027838;28;20448;-76
2022/05/27 08:23:24;;;;;;;13.70;2.97;;;18.00;90.60;;;;;;5002968;28;20054;-76
2022/05/27 08:25:52;;;;;;;7.50;2.70;;;18.80;90.30;;;;;;5013885;28;20405;-76
2022/05/27 08:28:22;;;;;;;9.55;2.90;;;19.60;90.10;;;;;;5012630;28;20520;-76
2022/05/27 08:30:49;;;;;;;10.13;2.75;;;19.80;88.60;;;;;;5003070;28;20054;-77
2022/05/27 08:33:15;;;;;;;8.75;2.67;;;19.60;86.00;;;;;;5021459;28;20073;-76
2022/05/27 08:38:40;;;;;;;9.25;2.38;;;20.20;83.20;;;;;;4960395;28;20414;-75
2022/05/27 08:41:20;;;;;;;6.00;2.28;;;20.10;78.40;;;;;;4998012;28;20049;-74
2022/05/27 08:44:05;;;;;;;12.10;2.40;;;19.80;78.20;;;;;;4996979;28;20054;-75
2022/05/27 08:46:39;;;;;;;6.13;2.28;;;19.50;80.90;;;;;;5012253;28;20421;-75
2022/05/27 08:49:09;;;;;;;10.70;3.03;;;19.90;82.10;;;;;;4995639;28;20053;-75
2022/05/27 08:51:40;;;;;;;10.70;2.70;;;19.90;82.30;;;;;;5017082;28;20402;-75
2022/05/27 08:54:12;;;;;;;15.40;3.03;;;19.90;82.80;;;;;;5014971;28;20476;-75
2022/05/27 08:59:35;;;;;;;10.60;2.70;;;19.40;84.60;;;;;;5028489;28;20046;-77
2022/05/27 09:02:09;;;;;;;8.88;2.58;;;20.00;84.20;;;;;;5024880;28;20053;-75
2022/05/27 09:04:47;;;;;;;9.45;2.80;;;20.70;80.50;;;;;;5003909;28;20058;-76
2022/05/27 09:07:25;;;;;;;7.53;2.88;;;20.90;79.20;;;;;;4999620;28;20495;-76
2022/05/27 09:09:55;;;;;;;9.60;2.42;;;20.60;78.40;;;;;;5010703;28;20457;-76
2022/05/27 09:12:34;;;;;;;11.57;3.10;;;20.60;78.40;;;;;;5010788;28;20061;-75
2022/05/27 09:15:04;;;;;;;9.87;2.70;;;21.10;77.20;;;;;;4995008;28;20487;-76
2022/05/27 09:17:42;;;;;;;8.70;3.03;;;21.30;76.50;;;;;;5016444;28;20557;-75
2022/05/27 09:20:22;;;;;;;9.52;2.85;;;20.40;75.80;;;;;;4994052;28;20133;-76
2022/05/27 09:22:50;;;;;;;;;;;20.40;78.60;;;;;;4999909;28;20049;-75
2022/05/27 09:25:26;;;;;;;7.57;2.38;;;20.60;77.80;;;;;;5012564;28;19921;-76
2022/05/27 09:28:03;;;;;;;9.45;3.25;;;20.70;78.40;;;;;;4995385;28;20561;-76
2022/05/27 09:30:33;;;;;;;11.90;2.75;;;20.50;78.10;;;;;;4994036;28;20234;-75
2022/05/27 09:33:03;;;;;;;6.07;1.92;;;20.90;75.60;;;;;;5016391;28;20108;-76
2022/05/27 09:35:31;;;;;;;;;;;21.20;75.10;;;;;;5012668;28;20100;-77
2022/05/27 09:38:01;;;;;;;12.50;2.70;;;21.10;74.40;;;;;;5012219;28;19968;-77
2022/05/27 09:40:36;;;;;;;12.82;2.70;;;20.80;75.50;;;;;;4994079;28;20135;-77
2022/05/27 09:43:13;;;;;;;12.07;3.30;;;20.80;75.30;;;;;;5011618;28;20136;-77
2022/05/27 09:45:40;;;;;;;8.23;3.17;;;20.50;77.00;;;;;;4997375;28;20073;-76
2022/05/27 09:48:10;;;;;;;10.95;2.75;;;19.80;77.10;;;;;;5004868;28;20049;-76
2022/05/27 09:50:41;;;;;;;10.40;2.75;;;20.10;78.60;;;;;;5011013;28;20049;-75
2022/05/27 09:53:12;;;;;;;9.07;2.80;;;20.10;77.20;;;;;;4997874;28;20089;-77
2022/05/27 09:55:46;;;;;;;9.57;2.53;;;20.30;78.20;;;;;;4997983;28;20163;-76
2022/05/27 09:58:13;;;;;;;12.63;3.15;;;20.10;77.60;;;;;;5011316;28;20129;-76
2022/05/27 10:00:44;;;;;;;8.32;2.47;;;20.30;79.00;;;;;;5005441;28;20053;-76
2022/05/27 10:03:33;;;;;;;13.15;2.80;;;20.30;78.50;;;;;;5031151;28;20493;-75
2022/05/27 10:06:03;;;;;;;13.82;3.83;;;20.00;76.90;;;;;;5028128;28;20056;-76
2022/05/27 10:08:34;;;;;;;10.23;3.08;;;20.20;79.00;;;;;;5010641;28;20143;-75
2022/05/27 10:11:24;;;;;;;10.23;3.05;;;20.20;78.50;;;;;;5027209;28;20049;-74
2022/05/27 10:14:11;;;;;;;8.48;2.60;;;20.30;78.20;;;;;;5030397;28;20054;-77
2022/05/27 10:16:40;;;;;;;9.40;2.92;;;20.20;79.30;;;;;;5014845;28;20045;-77
2022/05/27 10:19:13;;;;;;;19.92;4.00;;;20.60;79.80;;;;;;5030685;28;20110;-76
2022/05/27 10:21:52;;;;;;;13.32;3.60;;;20.70;78.90;;;;;;4994645;28;20141;-76
2022/05/27 10:24:23;;;;;;;16.17;3.50;;;20.40;78.60;;;;;;5012345;28;20088;-77
2022/05/27 10:27:10;;;;;;;18.02;3.50;;;19.60;78.70;;;;;;5013487;28;20045;-76
2022/05/27 10:29:50;;;;;;;13.10;3.47;;;19.80;79.60;;;;;;4994289;28;20065;-77
2022/05/27 10:32:30;;;;;;;15.43;3.55;;;19.80;80.70;;;;;;4992325;28;20089;-78
2022/05/27 10:34:58;;;;;;;12.13;2.97;;;19.70;80.00;;;;;;5005154;28;20140;-77
2022/05/27 10:37:36;;;;;;;8.38;2.90;;;19.60;80.70;;;;;;5010575;28;20041;-76
2022/05/27 10:40:15;;;;;;;9.93;2.92;;;19.20;81.10;;;;;;4998791;28;20410;-75
2022/05/27 10:42:54;;;;;;;11.63;3.22;;;19.10;82.30;;;;;;5013061;28;20500;-76
2022/05/27 10:45:24;;;;;;;10.20;3.42;;;19.10;83.70;;;;;;5014248;28;20068;-76
2022/05/27 10:48:16;;;;;;;9.23;2.85;;;18.80;81.50;;;;;;5008285;28;20069;-77
2022/05/27 10:50:52;;;;;;;9.77;3.17;;;18.90;83.10;;;;;;5030816;28;20046;-75
2022/05/27 10:53:43;;;;;;;12.23;3.20;;;19.30;83.20;;;;;;5032061;28;20049;-76
2022/05/27 10:56:25;;;;;;;14.23;3.42;;;20.00;82.90;;;;;;5012710;28;20091;-76
2022/05/27 11:02:05;;;;;;;11.63;3.08;;;19.40;80.90;;;;;;5011906;28;20203;-76
2022/05/27 11:04:57;;;;;;;12.52;4.00;;;19.70;82.30;;;;;;5013881;28;20057;-76
2022/05/27 11:07:36;;;;;;;8.95;2.90;;;19.90;81.90;;;;;;5012789;28;20081;-76
2022/05/27 11:10:16;;;;;;;11.95;3.53;;;20.20;82.80;;;;;;5029835;28;20132;-76
2022/05/27 11:15:56;;;;;;;11.25;3.22;;;19.70;80.30;;;;;;5031537;28;20042;-77
2022/05/27 11:18:38;;;;;;;10.25;2.90;;;19.60;80.70;;;;;;5028788;28;20502;-77
2022/05/27 11:21:26;;;;;;;10.57;3.03;;;19.70;81.60;;;;;;5017069;28;20084;-77
2022/05/27 11:24:24;;;;;;;10.38;2.92;;;20.60;80.70;;;;;;5016948;28;20061;-76
2022/05/27 11:26:59;;;;;;;10.35;3.08;;;20.80;79.30;;;;;;5017227;28;20480;-76
2022/05/27 11:29:51;;;;;;;9.57;3.22;;;20.20;79.10;;;;;;5016032;28;20480;-75
2022/05/27 11:32:31;;;;;;;7.63;2.70;;;19.80;79.50;;;;;;5017046;28;20053;-76
2022/05/27 11:35:07;;;;;;;12.15;3.13;;;19.60;80.40;;;;;;5035839;28;20107;-76
2022/05/27 11:37:57;;;;;;;10.68;3.05;;;19.30;81.50;;;;;;5014145;28;20077;-76
2022/05/27 11:40:33;;;;;;;8.88;2.90;;;19.00;82.60;;;;;;5008064;28;20103;-76
2022/05/27 11:43:41;;;;;;;7.55;2.25;;;19.00;83.40;;;;;;5025384;28;20053;-76
2022/05/27 11:46:51;;;;;;;11.52;3.40;;;19.10;83.70;;;;;;4992064;28;20108;-76
2022/05/27 11:49:40;;;;;;;6.68;2.65;;;19.00;82.50;;;;;;4963070;28;20150;-77
2022/05/27 11:52:26;;;;;;;10.48;2.60;;;19.20;84.20;;;;;;4941318;28;20579;-78
2022/05/27 11:55:10;;;;;;;7.72;2.65;;;19.70;82.30;;;;;;5016799;28;20127;-76
2022/05/27 11:57:52;;;;;;;8.52;2.30;;;19.80;80.80;;;;;;5033514;28;20057;-75
2022/05/27 12:00:21;;;;;;;15.50;3.10;;;19.70;79.00;;;;;;5032477;28;20049;-76
2022/05/27 12:02:58;;;;;;;7.97;2.35;;;19.40;79.60;;;;;;5015915;28;20120;-77
2022/05/27 12:05:32;;;;;;;9.88;2.63;;;18.90;80.00;;;;;;5033490;28;20485;-78
2022/05/27 12:08:03;;;;;;;8.98;2.67;;;19.10;79.10;;;;;;5034152;28;20045;-77
2022/05/27 12:10:39;;;;;;;10.45;3.08;;;19.40;80.00;;;;;;5038600;28;20132;-77
2022/05/27 12:13:12;;;;;;;9.13;2.08;;;19.00;79.20;;;;;;5033771;28;20111;-77
2022/05/27 12:15:45;;;;;;;7.18;2.33;;;18.90;80.70;;;;;;5033828;28;20045;-78
2022/05/27 12:18:19;;;;;;;9.73;2.63;;;18.90;80.90;;;;;;5015430;28;20097;-77
2022/05/27 12:20:48;;;;;;;10.52;3.10;;;18.50;81.60;;;;;;5032216;28;20119;-76
2022/05/27 12:23:17;;;;;;;12.27;2.97;;;18.50;82.30;;;;;;5016013;28;20089;-77
2022/05/27 12:25:47;;;;;;;15.82;3.25;;;18.20;83.10;;;;;;5034053;28;20049;-77
2022/05/27 12:28:16;;;;;;;13.80;3.03;;;18.00;83.80;;;;;;5015798;28;20112;-77
2022/05/27 12:30:45;;;;;;;12.75;3.42;;;17.90;84.40;;;;;;5014498;28;20084;-77
2022/05/27 12:33:15;;;;;;;13.88;3.45;;;18.00;85.20;;;;;;5017179;28;20493;-78
2022/05/27 12:35:44;;;;;;;;;;;17.50;86.20;;;;;;5017515;28;20084;-77
2022/05/27 12:38:16;;;;;;;9.95;3.03;;;17.30;90.10;;;;;;5004432;28;19925;-77
2022/05/27 12:40:48;;;;;;;11.43;3.40;;;17.10;90.70;;;;;;5021979;28;20060;-78
2022/05/27 12:43:28;;;;;;;11.25;3.40;;;17.90;90.80;;;;;;5032185;28;20497;-77
2022/05/27 12:46:13;;;;;;;11.10;2.97;;;18.50;90.40;;;;;;5003802;28;20561;-78
2022/05/27 12:48:41;;;;;;;11.32;2.80;;;18.40;89.30;;;;;;4992721;28;20289;-76
2022/05/27 12:51:29;;;;;;;11.32;3.08;;;19.00;87.70;;;;;;5019600;28;20093;-75
2022/05/27 12:53:59;;;;;;;10.20;3.17;;;19.80;86.40;;;;;;5014331;28;20053;-78
2022/05/27 13:02:48;;;;;;;9.68;3.17;;;19.50;84.60;;;;;;4982516;28;20080;-76
2022/05/27 13:05:17;;;;;;;13.38;3.08;;;20.60;83.30;;;;;;5031810;28;20049;-78
2022/05/27 13:07:48;;;;;;;6.85;2.40;;;21.20;80.60;;;;;;5020420;28;20375;-78
2022/05/27 13:10:47;;;;;;;11.85;3.33;;;21.20;79.60;;;;;;5022800;28;20060;-76
2022/05/27 13:13:16;;;;;;;8.43;2.88;;;21.20;77.40;;;;;;5014912;28;20516;-79
2022/05/27 13:15:53;;;;;;;8.52;2.58;;;20.60;77.10;;;;;;4993327;28;20060;-77
2022/05/27 13:18:35;;;;;;;11.50;3.88;;;20.30;78.70;;;;;;5022601;28;20049;-78
2022/05/27 13:21:11;;;;;;;11.00;3.17;;;20.50;80.10;;;;;;5024258;28;20053;-78
2022/05/27 13:23:52;;;;;;;13.15;3.03;;;20.00;80.20;;;;;;5026971;28;20129;-78
2022/05/27 13:26:27;;;;;;;;;;;20.10;78.70;;;;;;5022922;28;20096;-78
2022/05/27 13:28:57;;;;;;;12.20;3.33;;;19.90;80.20;;;;;;4991789;28;19926;-77
2022/05/27 13:31:31;;;;;;;8.65;2.85;;;19.80;81.00;;;;;;5018216;28;20049;-77
2022/05/27 13:34:04;;;;;;;10.02;3.00;;;19.50;81.90;;;;;;5008886;28;20053;-77
2022/05/27 13:36:38;;;;;;;12.52;3.17;;;18.80;83.30;;;;;;5031530;28;20123;-76